sensor_id;sensor_type;location;lat;lon;timestamp;P1;durP1;ratioP1;P2;durP2;ratioP2
71381;SDS011;60099;45.660;13.804;2022-09-13T00:00:48;1.95;;;0.65;;
71381;SDS011;60099;45.660;13.804;2022-09-13T00:03:15;0.95;;;0.65;;
71381;SDS011;60099;45.660;13.804;2022-09-13T00:05:41;1.65;;;0.80;;
71381;SDS011;60099;45.660;13.804;2022-09-13T00:08:07;1.38;;;0.90;;
71381;SDS011;60099;45.660;13.804;2022-09-13T00:10:34;2.95;;;0.90;;
71381;SDS011;60099;45.660;13.804;2022-09-13T00:13:02;1.85;;;0.70;;
71381;SDS011;60099;45.660;13.804;2022-09-13T00:15:28;2.13;;;0.90;;
71381;SDS011;60099;45.660;13.804;2022-09-13T00:17:54;1.20;;;0.68;;
71381;SDS011;60099;45.660;13.804;2022-09-13T00:20:20;2.28;;;0.80;;
71381;SDS011;60099;45.660;13.804;2022-09-13T00:22:46;2.72;;;0.70;;
71381;SDS011;60099;45.660;13.804;2022-09-13T00:25:12;0.70;;;0.70;;
71381;SDS011;60099;45.660;13.804;2022-09-13T00:27:38;1.00;;;0.90;;
71381;SDS011;60099;45.660;13.804;2022-09-13T00:30:04;0.70;;;0.70;;
71381;SDS011;60099;45.660;13.804;2022-09-13T00:32:32;1.80;;;1.13;;
71381;SDS011;60099;45.660;13.804;2022-09-13T00:34:59;1.08;;;0.90;;
71381;SDS011;60099;45.660;13.804;2022-09-13T00:37:26;0.85;;;0.85;;
71381;SDS011;60099;45.660;13.804;2022-09-13T00:39:52;1.30;;;0.73;;
71381;SDS011;60099;45.660;13.804;2022-09-13T00:42:23;1.80;;;0.95;;
71381;SDS011;60099;45.660;13.804;2022-09-13T00:47:29;1.00;;;0.60;;
71381;SDS011;60099;45.660;13.804;2022-09-13T00:50:23;0.98;;;0.80;;
71381;SDS011;60099;45.660;13.804;2022-09-13T00:52:59;2.22;;;0.90;;
71381;SDS011;60099;45.660;13.804;2022-09-13T00:55:27;1.58;;;0.88;;
71381;SDS011;60099;45.660;13.804;2022-09-13T00:58:01;2.60;;;0.85;;
71381;SDS011;60099;45.660;13.804;2022-09-13T01:00:32;1.08;;;0.95;;
71381;SDS011;60099;45.660;13.804;2022-09-13T01:03:00;1.08;;;0.77;;
71381;SDS011;60099;45.660;13.804;2022-09-13T01:05:31;2.15;;;0.85;;
71381;SDS011;60099;45.660;13.804;2022-09-13T01:08:02;1.23;;;0.90;;
71381;SDS011;60099;45.660;13.804;2022-09-13T01:10:36;1.17;;;0.70;;
71381;SDS011;60099;45.660;13.804;2022-09-13T01:13:23;1.40;;;0.90;;
71381;SDS011;60099;45.660;13.804;2022-09-13T01:15:52;1.85;;;1.00;;
71381;SDS011;60099;45.660;13.804;2022-09-13T01:18:19;0.80;;;0.80;;
71381;SDS011;60099;45.660;13.804;2022-09-13T01:20:47;1.13;;;1.02;;
71381;SDS011;60099;45.660;13.804;2022-09-13T01:29:07;1.23;;;0.80;;
71381;SDS011;60099;45.660;13.804;2022-09-13T01:34:50;1.10;;;1.00;;
71381;SDS011;60099;45.660;13.804;2022-09-13T01:37:45;1.00;;;0.90;;
71381;SDS011;60099;45.660;13.804;2022-09-13T01:40:45;1.63;;;0.90;;
71381;SDS011;60099;45.660;13.804;2022-09-13T01:46:26;1.35;;;0.80;;
71381;SDS011;60099;45.660;13.804;2022-09-13T01:49:27;2.53;;;0.82;;
71381;SDS011;60099;45.660;13.804;2022-09-13T01:54:49;2.20;;;0.90;;
71381;SDS011;60099;45.660;13.804;2022-09-13T02:00:10;1.45;;;0.85;;
71381;SDS011;60099;45.660;13.804;2022-09-13T02:02:51;0.98;;;0.88;;
71381;SDS011;60099;45.660;13.804;2022-09-13T02:05:45;2.88;;;0.95;;
71381;SDS011;60099;45.660;13.804;2022-09-13T02:08:15;1.52;;;0.95;;
71381;SDS011;60099;45.660;13.804;2022-09-13T02:10:46;2.63;;;0.73;;
71381;SDS011;60099;45.660;13.804;2022-09-13T02:13:35;1.10;;;0.82;;
71381;SDS011;60099;45.660;13.804;2022-09-13T02:16:20;0.95;;;0.70;;
71381;SDS011;60099;45.660;13.804;2022-09-13T02:18:54;1.30;;;1.08;;
71381;SDS011;60099;45.660;13.804;2022-09-13T02:21:28;1.13;;;1.00;;
71381;SDS011;60099;45.660;13.804;2022-09-13T02:24:01;0.98;;;0.88;;
71381;SDS011;60099;45.660;13.804;2022-09-13T02:26:30;1.83;;;0.90;;
71381;SDS011;60099;45.660;13.804;2022-09-13T02:29:00;2.25;;;1.10;;
71381;SDS011;60099;45.660;13.804;2022-09-13T02:31:35;2.20;;;1.00;;
71381;SDS011;60099;45.660;13.804;2022-09-13T02:34:07;1.50;;;1.05;;
71381;SDS011;60099;45.660;13.804;2022-09-13T02:36:39;0.77;;;0.68;;
71381;SDS011;60099;45.660;13.804;2022-09-13T02:39:11;2.28;;;1.00;;
71381;SDS011;60099;45.660;13.804;2022-09-13T02:44:39;0.90;;;0.90;;
71381;SDS011;60099;45.660;13.804;2022-09-13T02:47:33;1.15;;;0.73;;
71381;SDS011;60099;45.660;13.804;2022-09-13T02:50:10;2.03;;;1.10;;
71381;SDS011;60099;45.660;13.804;2022-09-13T03:01:31;2.10;;;0.83;;
71381;SDS011;60099;45.660;13.804;2022-09-13T03:03:59;0.60;;;0.60;;
71381;SDS011;60099;45.660;13.804;2022-09-13T03:06:26;1.15;;;0.80;;
71381;SDS011;60099;45.660;13.804;2022-09-13T03:08:53;0.93;;;0.80;;
71381;SDS011;60099;45.660;13.804;2022-09-13T03:22:36;1.13;;;0.85;;
71381;SDS011;60099;45.660;13.804;2022-09-13T03:30:26;1.63;;;1.00;;
71381;SDS011;60099;45.660;13.804;2022-09-13T03:33:01;1.90;;;0.85;;
71381;SDS011;60099;45.660;13.804;2022-09-13T03:35:42;1.95;;;1.02;;
71381;SDS011;60099;45.660;13.804;2022-09-13T03:38:19;3.58;;;1.00;;
71381;SDS011;60099;45.660;13.804;2022-09-13T03:40:55;2.35;;;0.90;;
71381;SDS011;60099;45.660;13.804;2022-09-13T03:43:30;2.17;;;0.80;;
71381;SDS011;60099;45.660;13.804;2022-09-13T03:46:05;1.70;;;1.10;;
71381;SDS011;60099;45.660;13.804;2022-09-13T03:48:36;1.30;;;0.88;;
71381;SDS011;60099;45.660;13.804;2022-09-13T03:51:05;0.85;;;0.85;;
71381;SDS011;60099;45.660;13.804;2022-09-13T03:53:32;3.72;;;0.95;;
71381;SDS011;60099;45.660;13.804;2022-09-13T03:56:12;2.00;;;0.80;;
71381;SDS011;60099;45.660;13.804;2022-09-13T03:58:40;2.25;;;0.98;;
71381;SDS011;60099;45.660;13.804;2022-09-13T04:01:06;3.17;;;1.00;;
71381;SDS011;60099;45.660;13.804;2022-09-13T04:03:34;1.20;;;1.10;;
71381;SDS011;60099;45.660;13.804;2022-09-13T04:06:01;2.05;;;1.20;;
71381;SDS011;60099;45.660;13.804;2022-09-13T04:08:26;0.93;;;0.70;;
71381;SDS011;60099;45.660;13.804;2022-09-13T04:10:52;2.88;;;0.90;;
71381;SDS011;60099;45.660;13.804;2022-09-13T04:13:18;1.40;;;0.90;;
71381;SDS011;60099;45.660;13.804;2022-09-13T04:15:47;2.22;;;1.10;;
71381;SDS011;60099;45.660;13.804;2022-09-13T04:18:14;1.33;;;1.00;;
71381;SDS011;60099;45.660;13.804;2022-09-13T04:20:42;2.85;;;1.27;;
71381;SDS011;60099;45.660;13.804;2022-09-13T04:23:10;1.67;;;0.90;;
71381;SDS011;60099;45.660;13.804;2022-09-13T04:25:39;1.58;;;0.75;;
71381;SDS011;60099;45.660;13.804;2022-09-13T04:28:04;2.88;;;0.80;;
71381;SDS011;60099;45.660;13.804;2022-09-13T04:30:31;1.48;;;0.70;;
71381;SDS011;60099;45.660;13.804;2022-09-13T04:32:56;0.80;;;0.80;;
71381;SDS011;60099;45.660;13.804;2022-09-13T04:35:23;1.45;;;0.90;;
71381;SDS011;60099;45.660;13.804;2022-09-13T04:37:49;3.65;;;1.00;;
71381;SDS011;60099;45.660;13.804;2022-09-13T04:40:15;2.13;;;1.33;;
71381;SDS011;60099;45.660;13.804;2022-09-13T04:42:42;2.25;;;1.20;;
71381;SDS011;60099;45.660;13.804;2022-09-13T04:45:09;1.95;;;1.00;;
71381;SDS011;60099;45.660;13.804;2022-09-13T04:47:35;2.33;;;1.00;;
71381;SDS011;60099;45.660;13.804;2022-09-13T04:50:00;2.03;;;1.10;;
71381;SDS011;60099;45.660;13.804;2022-09-13T04:52:26;2.05;;;1.00;;
71381;SDS011;60099;45.660;13.804;2022-09-13T04:54:52;0.85;;;0.85;;
71381;SDS011;60099;45.660;13.804;2022-09-13T04:57:18;1.20;;;1.00;;
71381;SDS011;60099;45.660;13.804;2022-09-13T04:59:44;1.88;;;0.93;;
71381;SDS011;60099;45.660;13.804;2022-09-13T05:02:10;1.00;;;0.80;;
71381;SDS011;60099;45.660;13.804;2022-09-13T05:04:35;2.03;;;1.10;;
71381;SDS011;60099;45.660;13.804;2022-09-13T05:07:01;2.35;;;0.90;;
71381;SDS011;60099;45.660;13.804;2022-09-13T05:09:27;1.15;;;1.05;;
71381;SDS011;60099;45.660;13.804;2022-09-13T05:11:53;2.08;;;1.20;;
71381;SDS011;60099;45.660;13.804;2022-09-13T05:14:19;0.90;;;0.90;;
71381;SDS011;60099;45.660;13.804;2022-09-13T05:16:44;2.80;;;1.00;;
71381;SDS011;60099;45.660;13.804;2022-09-13T05:19:10;2.88;;;1.23;;
71381;SDS011;60099;45.660;13.804;2022-09-13T05:21:37;3.78;;;1.02;;
71381;SDS011;60099;45.660;13.804;2022-09-13T05:24:03;1.00;;;0.90;;
71381;SDS011;60099;45.660;13.804;2022-09-13T05:26:29;1.77;;;1.00;;
71381;SDS011;60099;45.660;13.804;2022-09-13T05:28:55;1.95;;;1.10;;
71381;SDS011;60099;45.660;13.804;2022-09-13T05:31:27;1.67;;;1.13;;
71381;SDS011;60099;45.660;13.804;2022-09-13T05:33:59;1.83;;;0.90;;
71381;SDS011;60099;45.660;13.804;2022-09-13T05:36:27;0.98;;;0.95;;
71381;SDS011;60099;45.660;13.804;2022-09-13T05:38:53;1.27;;;1.02;;
71381;SDS011;60099;45.660;13.804;2022-09-13T05:41:20;1.23;;;0.80;;
71381;SDS011;60099;45.660;13.804;2022-09-13T05:43:46;2.05;;;1.10;;
71381;SDS011;60099;45.660;13.804;2022-09-13T05:46:13;1.05;;;0.90;;
71381;SDS011;60099;45.660;13.804;2022-09-13T05:48:40;2.05;;;1.27;;
71381;SDS011;60099;45.660;13.804;2022-09-13T05:53:40;2.38;;;1.30;;
71381;SDS011;60099;45.660;13.804;2022-09-13T05:56:08;1.83;;;1.17;;
71381;SDS011;60099;45.660;13.804;2022-09-13T05:58:38;2.50;;;1.33;;
71381;SDS011;60099;45.660;13.804;2022-09-13T06:01:05;1.52;;;1.25;;
71381;SDS011;60099;45.660;13.804;2022-09-13T06:03:31;1.23;;;1.08;;
71381;SDS011;60099;45.660;13.804;2022-09-13T06:05:57;1.73;;;1.10;;
71381;SDS011;60099;45.660;13.804;2022-09-13T06:08:23;1.80;;;1.38;;
71381;SDS011;60099;45.660;13.804;2022-09-13T06:10:54;2.05;;;1.20;;
71381;SDS011;60099;45.660;13.804;2022-09-13T06:13:21;3.00;;;1.42;;
71381;SDS011;60099;45.660;13.804;2022-09-13T06:15:46;1.98;;;1.00;;
71381;SDS011;60099;45.660;13.804;2022-09-13T06:18:12;2.42;;;1.30;;
71381;SDS011;60099;45.660;13.804;2022-09-13T06:20:38;1.85;;;1.30;;
71381;SDS011;60099;45.660;13.804;2022-09-13T06:23:04;3.65;;;1.27;;
71381;SDS011;60099;45.660;13.804;2022-09-13T06:25:29;1.67;;;1.10;;
71381;SDS011;60099;45.660;13.804;2022-09-13T06:27:55;1.70;;;1.15;;
71381;SDS011;60099;45.660;13.804;2022-09-13T06:30:21;2.13;;;1.30;;
71381;SDS011;60099;45.660;13.804;2022-09-13T06:32:46;2.70;;;1.20;;
71381;SDS011;60099;45.660;13.804;2022-09-13T06:35:12;1.58;;;1.20;;
71381;SDS011;60099;45.660;13.804;2022-09-13T06:37:38;1.40;;;1.30;;
71381;SDS011;60099;45.660;13.804;2022-09-13T06:40:04;2.72;;;1.30;;
71381;SDS011;60099;45.660;13.804;2022-09-13T06:42:32;1.92;;;1.20;;
71381;SDS011;60099;45.660;13.804;2022-09-13T06:44:59;1.58;;;1.13;;
71381;SDS011;60099;45.660;13.804;2022-09-13T06:47:25;1.80;;;1.25;;
71381;SDS011;60099;45.660;13.804;2022-09-13T06:49:50;2.30;;;1.63;;
71381;SDS011;60099;45.660;13.804;2022-09-13T06:52:16;2.42;;;1.33;;
71381;SDS011;60099;45.660;13.804;2022-09-13T06:54:42;2.03;;;1.20;;
71381;SDS011;60099;45.660;13.804;2022-09-13T06:57:07;1.95;;;1.20;;
71381;SDS011;60099;45.660;13.804;2022-09-13T06:59:33;1.38;;;0.90;;
71381;SDS011;60099;45.660;13.804;2022-09-13T07:01:59;1.73;;;1.02;;
71381;SDS011;60099;45.660;13.804;2022-09-13T07:04:25;3.33;;;1.42;;
71381;SDS011;60099;45.660;13.804;2022-09-13T07:06:55;3.25;;;1.05;;
71381;SDS011;60099;45.660;13.804;2022-09-13T07:09:22;1.30;;;1.05;;
71381;SDS011;60099;45.660;13.804;2022-09-13T07:11:49;1.50;;;1.23;;
71381;SDS011;60099;45.660;13.804;2022-09-13T07:14:17;0.98;;;0.85;;
71381;SDS011;60099;45.660;13.804;2022-09-13T07:16:51;0.85;;;0.85;;
71381;SDS011;60099;45.660;13.804;2022-09-13T07:19:21;1.58;;;1.10;;
71381;SDS011;60099;45.660;13.804;2022-09-13T07:21:48;1.65;;;1.00;;
71381;SDS011;60099;45.660;13.804;2022-09-13T07:24:17;1.15;;;0.90;;
71381;SDS011;60099;45.660;13.804;2022-09-13T07:26:44;3.08;;;1.23;;
71381;SDS011;60099;45.660;13.804;2022-09-13T07:29:12;4.05;;;1.23;;
71381;SDS011;60099;45.660;13.804;2022-09-13T07:31:41;2.22;;;1.10;;
71381;SDS011;60099;45.660;13.804;2022-09-13T07:34:15;3.65;;;1.00;;
71381;SDS011;60099;45.660;13.804;2022-09-13T07:36:48;2.85;;;1.13;;
71381;SDS011;60099;45.660;13.804;2022-09-13T07:39:15;1.48;;;0.90;;
71381;SDS011;60099;45.660;13.804;2022-09-13T07:41:41;0.93;;;0.80;;
71381;SDS011;60099;45.660;13.804;2022-09-13T07:44:11;1.50;;;0.95;;
71381;SDS011;60099;45.660;13.804;2022-09-13T07:46:38;1.02;;;0.80;;
71381;SDS011;60099;45.660;13.804;2022-09-13T07:49:06;1.70;;;0.60;;
71381;SDS011;60099;45.660;13.804;2022-09-13T07:51:33;2.35;;;1.15;;
71381;SDS011;60099;45.660;13.804;2022-09-13T07:54:01;1.65;;;0.90;;
71381;SDS011;60099;45.660;13.804;2022-09-13T07:56:33;1.17;;;1.00;;
71381;SDS011;60099;45.660;13.804;2022-09-13T07:59:01;2.58;;;0.88;;
71381;SDS011;60099;45.660;13.804;2022-09-13T08:01:29;1.30;;;0.70;;
71381;SDS011;60099;45.660;13.804;2022-09-13T08:04:00;1.20;;;0.75;;
71381;SDS011;60099;45.660;13.804;2022-09-13T08:09:34;1.65;;;0.82;;
71381;SDS011;60099;45.660;13.804;2022-09-13T08:12:00;1.40;;;0.80;;
71381;SDS011;60099;45.660;13.804;2022-09-13T08:14:25;1.58;;;0.82;;
71381;SDS011;60099;45.660;13.804;2022-09-13T08:16:54;2.85;;;0.90;;
71381;SDS011;60099;45.660;13.804;2022-09-13T08:19:21;2.37;;;0.93;;
71381;SDS011;60099;45.660;13.804;2022-09-13T08:21:46;1.45;;;0.82;;
71381;SDS011;60099;45.660;13.804;2022-09-13T08:24:19;1.45;;;0.85;;
71381;SDS011;60099;45.660;13.804;2022-09-13T08:26:45;1.27;;;0.93;;
71381;SDS011;60099;45.660;13.804;2022-09-13T08:29:12;0.60;;;0.60;;
71381;SDS011;60099;45.660;13.804;2022-09-13T08:31:38;2.00;;;0.90;;
71381;SDS011;60099;45.660;13.804;2022-09-13T08:34:06;0.60;;;0.60;;
71381;SDS011;60099;45.660;13.804;2022-09-13T08:36:35;2.30;;;0.80;;
71381;SDS011;60099;45.660;13.804;2022-09-13T08:39:01;0.70;;;0.70;;
71381;SDS011;60099;45.660;13.804;2022-09-13T08:41:32;0.95;;;0.68;;
71381;SDS011;60099;45.660;13.804;2022-09-13T08:44:33;0.50;;;0.50;;
71381;SDS011;60099;45.660;13.804;2022-09-13T08:49:42;0.77;;;0.52;;
71381;SDS011;60099;45.660;13.804;2022-09-13T08:52:28;0.95;;;0.68;;
71381;SDS011;60099;45.660;13.804;2022-09-13T08:55:18;0.47;;;0.38;;
71381;SDS011;60099;45.660;13.804;2022-09-13T09:04:28;0.63;;;0.52;;
71381;SDS011;60099;45.660;13.804;2022-09-13T09:09:33;1.08;;;0.75;;
71381;SDS011;60099;45.660;13.804;2022-09-13T09:14:37;1.17;;;0.80;;
71381;SDS011;60099;45.660;13.804;2022-09-13T09:17:19;1.80;;;0.73;;
71381;SDS011;60099;45.660;13.804;2022-09-13T09:19:53;2.65;;;1.20;;
71381;SDS011;60099;45.660;13.804;2022-09-13T09:22:30;1.98;;;0.95;;
71381;SDS011;60099;45.660;13.804;2022-09-13T09:24:59;1.33;;;1.05;;
71381;SDS011;60099;45.660;13.804;2022-09-13T09:27:33;1.08;;;0.75;;
71381;SDS011;60099;45.660;13.804;2022-09-13T09:29:59;1.85;;;1.00;;
71381;SDS011;60099;45.660;13.804;2022-09-13T09:32:42;1.00;;;0.93;;
71381;SDS011;60099;45.660;13.804;2022-09-13T09:35:43;1.77;;;1.20;;
71381;SDS011;60099;45.660;13.804;2022-09-13T09:41:25;1.65;;;0.90;;
71381;SDS011;60099;45.660;13.804;2022-09-13T09:46:51;2.30;;;1.30;;
71381;SDS011;60099;45.660;13.804;2022-09-13T09:49:36;2.60;;;1.05;;
71381;SDS011;60099;45.660;13.804;2022-09-13T09:52:28;2.75;;;1.00;;
71381;SDS011;60099;45.660;13.804;2022-09-13T09:55:13;1.67;;;0.90;;
71381;SDS011;60099;45.660;13.804;2022-09-13T09:57:59;1.27;;;0.80;;
71381;SDS011;60099;45.660;13.804;2022-09-13T10:00:27;0.52;;;0.52;;
71381;SDS011;60099;45.660;13.804;2022-09-13T10:02:56;1.10;;;0.60;;
71381;SDS011;60099;45.660;13.804;2022-09-13T10:05:25;1.20;;;1.02;;
71381;SDS011;60099;45.660;13.804;2022-09-13T10:07:54;0.93;;;0.68;;
71381;SDS011;60099;45.660;13.804;2022-09-13T10:10:23;0.70;;;0.70;;
71381;SDS011;60099;45.660;13.804;2022-09-13T10:13:00;0.35;;;0.30;;
71381;SDS011;60099;45.660;13.804;2022-09-13T10:15:30;2.53;;;0.68;;
71381;SDS011;60099;45.660;13.804;2022-09-13T10:20:29;0.75;;;0.43;;
71381;SDS011;60099;45.660;13.804;2022-09-13T10:23:09;0.88;;;0.68;;
71381;SDS011;60099;45.660;13.804;2022-09-13T10:25:35;1.00;;;0.75;;
71381;SDS011;60099;45.660;13.804;2022-09-13T10:28:02;0.95;;;0.70;;
71381;SDS011;60099;45.660;13.804;2022-09-13T10:30:47;1.40;;;0.70;;
71381;SDS011;60099;45.660;13.804;2022-09-13T10:33:26;0.98;;;0.73;;
71381;SDS011;60099;45.660;13.804;2022-09-13T10:36:14;1.10;;;1.00;;
71381;SDS011;60099;45.660;13.804;2022-09-13T10:38:47;1.05;;;0.80;;
71381;SDS011;60099;45.660;13.804;2022-09-13T10:41:22;1.35;;;0.75;;
71381;SDS011;60099;45.660;13.804;2022-09-13T10:43:57;0.60;;;0.60;;
71381;SDS011;60099;45.660;13.804;2022-09-13T10:46:26;1.23;;;0.90;;
71381;SDS011;60099;45.660;13.804;2022-09-13T10:49:01;1.17;;;0.60;;
71381;SDS011;60099;45.660;13.804;2022-09-13T10:54:17;2.22;;;0.70;;
71381;SDS011;60099;45.660;13.804;2022-09-13T10:56:47;1.80;;;0.80;;
71381;SDS011;60099;45.660;13.804;2022-09-13T11:04:55;1.02;;;0.93;;
71381;SDS011;60099;45.660;13.804;2022-09-13T11:21:53;2.00;;;0.95;;
71381;SDS011;60099;45.660;13.804;2022-09-13T11:27:09;0.70;;;0.70;;
71381;SDS011;60099;45.660;13.804;2022-09-13T11:29:50;0.90;;;0.60;;
71381;SDS011;60099;45.660;13.804;2022-09-13T11:32:42;1.33;;;0.80;;
71381;SDS011;60099;45.660;13.804;2022-09-13T11:43:20;3.20;;;0.95;;
71381;SDS011;60099;45.660;13.804;2022-09-13T11:46:01;0.90;;;0.70;;
71381;SDS011;60099;45.660;13.804;2022-09-13T11:51:20;0.70;;;0.70;;
71381;SDS011;60099;45.660;13.804;2022-09-13T12:01:56;1.10;;;0.50;;
71381;SDS011;60099;45.660;13.804;2022-09-13T12:04:33;2.38;;;0.80;;
71381;SDS011;60099;45.660;13.804;2022-09-13T12:07:08;0.73;;;0.70;;
71381;SDS011;60099;45.660;13.804;2022-09-13T12:09:50;1.17;;;0.52;;
71381;SDS011;60099;45.660;13.804;2022-09-13T12:12:22;1.67;;;0.60;;
71381;SDS011;60099;45.660;13.804;2022-09-13T12:15:04;1.10;;;0.63;;
71381;SDS011;60099;45.660;13.804;2022-09-13T12:17:42;1.02;;;0.52;;
71381;SDS011;60099;45.660;13.804;2022-09-13T12:23:02;2.58;;;0.90;;
71381;SDS011;60099;45.660;13.804;2022-09-13T12:28:38;1.98;;;1.05;;
71381;SDS011;60099;45.660;13.804;2022-09-13T12:31:09;2.38;;;1.08;;
71381;SDS011;60099;45.660;13.804;2022-09-13T12:33:46;8.02;;;1.70;;
71381;SDS011;60099;45.660;13.804;2022-09-13T12:55:15;1.58;;;0.77;;
71381;SDS011;60099;45.660;13.804;2022-09-13T13:15:05;0.90;;;0.43;;
71381;SDS011;60099;45.660;13.804;2022-09-13T13:17:51;1.77;;;0.93;;
71381;SDS011;60099;45.660;13.804;2022-09-13T13:33:52;2.13;;;0.90;;
71381;SDS011;60099;45.660;13.804;2022-09-13T13:36:22;1.58;;;0.90;;
71381;SDS011;60099;45.660;13.804;2022-09-13T13:38:59;1.20;;;0.70;;
71381;SDS011;60099;45.660;13.804;2022-09-13T13:44:09;3.28;;;1.17;;
71381;SDS011;60099;45.660;13.804;2022-09-13T13:46:44;2.10;;;0.90;;
71381;SDS011;60099;45.660;13.804;2022-09-13T13:57:22;2.88;;;1.20;;
71381;SDS011;60099;45.660;13.804;2022-09-13T13:59:54;0.80;;;0.80;;
71381;SDS011;60099;45.660;13.804;2022-09-13T14:07:56;1.48;;;1.17;;
71381;SDS011;60099;45.660;13.804;2022-09-13T14:13:56;1.80;;;0.90;;
71381;SDS011;60099;45.660;13.804;2022-09-13T14:16:53;1.45;;;0.80;;
71381;SDS011;60099;45.660;13.804;2022-09-13T14:19:27;0.88;;;0.80;;
71381;SDS011;60099;45.660;13.804;2022-09-13T14:24:37;1.75;;;1.13;;
71381;SDS011;60099;45.660;13.804;2022-09-13T14:27:09;1.77;;;0.80;;
71381;SDS011;60099;45.660;13.804;2022-09-13T14:29:43;1.85;;;0.93;;
71381;SDS011;60099;45.660;13.804;2022-09-13T14:32:12;1.00;;;0.90;;
71381;SDS011;60099;45.660;13.804;2022-09-13T14:34:53;1.33;;;1.05;;
71381;SDS011;60099;45.660;13.804;2022-09-13T14:37:31;1.77;;;1.00;;
71381;SDS011;60099;45.660;13.804;2022-09-13T14:42:50;2.13;;;0.90;;
71381;SDS011;60099;45.660;13.804;2022-09-13T14:45:25;2.53;;;0.90;;
71381;SDS011;60099;45.660;13.804;2022-09-13T14:50:28;1.48;;;0.98;;
71381;SDS011;60099;45.660;13.804;2022-09-13T14:53:00;1.10;;;1.02;;
71381;SDS011;60099;45.660;13.804;2022-09-13T14:55:39;1.40;;;1.02;;
71381;SDS011;60099;45.660;13.804;2022-09-13T14:58:18;2.97;;;1.33;;
71381;SDS011;60099;45.660;13.804;2022-09-13T15:00:48;2.15;;;1.08;;
71381;SDS011;60099;45.660;13.804;2022-09-13T15:03:26;1.67;;;1.15;;
71381;SDS011;60099;45.660;13.804;2022-09-13T15:05:53;2.92;;;1.20;;
71381;SDS011;60099;45.660;13.804;2022-09-13T15:11:03;1.58;;;0.98;;
71381;SDS011;60099;45.660;13.804;2022-09-13T15:13:30;2.75;;;1.30;;
71381;SDS011;60099;45.660;13.804;2022-09-13T15:15:57;1.83;;;1.10;;
71381;SDS011;60099;45.660;13.804;2022-09-13T15:18:24;1.67;;;1.00;;
71381;SDS011;60099;45.660;13.804;2022-09-13T15:21:05;2.08;;;1.13;;
71381;SDS011;60099;45.660;13.804;2022-09-13T15:23:41;2.80;;;1.30;;
71381;SDS011;60099;45.660;13.804;2022-09-13T15:26:20;1.05;;;1.00;;
71381;SDS011;60099;45.660;13.804;2022-09-13T15:31:20;3.80;;;1.20;;
71381;SDS011;60099;45.660;13.804;2022-09-13T15:33:46;4.00;;;1.30;;
71381;SDS011;60099;45.660;13.804;2022-09-13T15:41:42;2.60;;;0.82;;
71381;SDS011;60099;45.660;13.804;2022-09-13T15:44:19;1.90;;;1.10;;
71381;SDS011;60099;45.660;13.804;2022-09-13T15:46:48;1.35;;;0.95;;
71381;SDS011;60099;45.660;13.804;2022-09-13T15:49:19;1.48;;;1.20;;
71381;SDS011;60099;45.660;13.804;2022-09-13T15:52:01;1.50;;;1.10;;
71381;SDS011;60099;45.660;13.804;2022-09-13T15:54:32;2.55;;;1.10;;
71381;SDS011;60099;45.660;13.804;2022-09-13T15:56:58;1.08;;;0.98;;
71381;SDS011;60099;45.660;13.804;2022-09-13T15:59:24;2.53;;;1.20;;
71381;SDS011;60099;45.660;13.804;2022-09-13T16:01:50;1.95;;;0.90;;
71381;SDS011;60099;45.660;13.804;2022-09-13T16:04:17;1.98;;;1.40;;
71381;SDS011;60099;45.660;13.804;2022-09-13T16:06:43;1.88;;;1.35;;
71381;SDS011;60099;45.660;13.804;2022-09-13T16:09:30;1.35;;;1.15;;
71381;SDS011;60099;45.660;13.804;2022-09-13T16:11:55;2.10;;;1.08;;
71381;SDS011;60099;45.660;13.804;2022-09-13T16:14:21;1.30;;;1.20;;
71381;SDS011;60099;45.660;13.804;2022-09-13T16:16:47;2.22;;;1.17;;
71381;SDS011;60099;45.660;13.804;2022-09-13T16:19:19;1.90;;;1.08;;
71381;SDS011;60099;45.660;13.804;2022-09-13T16:21:47;1.40;;;1.30;;
71381;SDS011;60099;45.660;13.804;2022-09-13T16:24:13;2.47;;;1.38;;
71381;SDS011;60099;45.660;13.804;2022-09-13T16:26:40;3.53;;;1.30;;
71381;SDS011;60099;45.660;13.804;2022-09-13T16:29:08;1.50;;;1.10;;
71381;SDS011;60099;45.660;13.804;2022-09-13T16:31:35;1.63;;;1.10;;
71381;SDS011;60099;45.660;13.804;2022-09-13T16:34:00;1.55;;;1.30;;
71381;SDS011;60099;45.660;13.804;2022-09-13T16:36:26;2.65;;;1.45;;
71381;SDS011;60099;45.660;13.804;2022-09-13T16:38:53;3.53;;;1.65;;
71381;SDS011;60099;45.660;13.804;2022-09-13T16:41:19;1.95;;;1.33;;
71381;SDS011;60099;45.660;13.804;2022-09-13T16:43:45;1.83;;;1.30;;
71381;SDS011;60099;45.660;13.804;2022-09-13T16:46:17;4.53;;;1.33;;
71381;SDS011;60099;45.660;13.804;2022-09-13T16:48:44;1.80;;;1.40;;
71381;SDS011;60099;45.660;13.804;2022-09-13T16:51:11;1.85;;;1.15;;
71381;SDS011;60099;45.660;13.804;2022-09-13T16:53:38;2.03;;;1.30;;
71381;SDS011;60099;45.660;13.804;2022-09-13T16:56:06;3.28;;;1.25;;
71381;SDS011;60099;45.660;13.804;2022-09-13T16:58:35;3.35;;;1.23;;
71381;SDS011;60099;45.660;13.804;2022-09-13T17:01:09;2.45;;;1.50;;
71381;SDS011;60099;45.660;13.804;2022-09-13T17:03:36;2.63;;;1.58;;
71381;SDS011;60099;45.660;13.804;2022-09-13T17:06:04;3.45;;;1.38;;
71381;SDS011;60099;45.660;13.804;2022-09-13T17:08:33;1.65;;;1.30;;
71381;SDS011;60099;45.660;13.804;2022-09-13T17:11:00;2.58;;;1.58;;
71381;SDS011;60099;45.660;13.804;2022-09-13T17:13:33;2.78;;;1.45;;
71381;SDS011;60099;45.660;13.804;2022-09-13T17:16:00;2.20;;;1.52;;
71381;SDS011;60099;45.660;13.804;2022-09-13T17:18:25;3.13;;;1.67;;
71381;SDS011;60099;45.660;13.804;2022-09-13T17:20:51;1.92;;;1.27;;
71381;SDS011;60099;45.660;13.804;2022-09-13T17:23:17;2.50;;;1.50;;
71381;SDS011;60099;45.660;13.804;2022-09-13T17:25:45;2.92;;;1.73;;
71381;SDS011;60099;45.660;13.804;2022-09-13T17:28:13;3.03;;;1.42;;
71381;SDS011;60099;45.660;13.804;2022-09-13T17:30:40;2.75;;;1.40;;
71381;SDS011;60099;45.660;13.804;2022-09-13T17:33:06;1.75;;;1.40;;
71381;SDS011;60099;45.660;13.804;2022-09-13T17:35:32;3.13;;;1.60;;
71381;SDS011;60099;45.660;13.804;2022-09-13T17:37:59;2.97;;;1.90;;
71381;SDS011;60099;45.660;13.804;2022-09-13T17:40:26;4.22;;;1.85;;
71381;SDS011;60099;45.660;13.804;2022-09-13T17:42:52;2.83;;;2.00;;
71381;SDS011;60099;45.660;13.804;2022-09-13T17:45:19;3.15;;;1.75;;
71381;SDS011;60099;45.660;13.804;2022-09-13T17:47:45;3.38;;;1.63;;
71381;SDS011;60099;45.660;13.804;2022-09-13T17:50:11;4.25;;;1.70;;
71381;SDS011;60099;45.660;13.804;2022-09-13T17:52:37;2.88;;;1.63;;
71381;SDS011;60099;45.660;13.804;2022-09-13T17:55:03;3.22;;;1.80;;
71381;SDS011;60099;45.660;13.804;2022-09-13T17:57:31;2.10;;;1.58;;
71381;SDS011;60099;45.660;13.804;2022-09-13T17:59:57;2.38;;;1.65;;
71381;SDS011;60099;45.660;13.804;2022-09-13T18:02:23;2.60;;;1.83;;
71381;SDS011;60099;45.660;13.804;2022-09-13T18:04:50;3.17;;;1.60;;
71381;SDS011;60099;45.660;13.804;2022-09-13T18:07:16;3.50;;;2.00;;
71381;SDS011;60099;45.660;13.804;2022-09-13T18:09:42;2.08;;;1.60;;
71381;SDS011;60099;45.660;13.804;2022-09-13T18:12:08;2.78;;;1.77;;
71381;SDS011;60099;45.660;13.804;2022-09-13T18:14:35;1.73;;;1.60;;
71381;SDS011;60099;45.660;13.804;2022-09-13T18:17:02;1.85;;;1.50;;
71381;SDS011;60099;45.660;13.804;2022-09-13T18:19:34;2.85;;;1.65;;
71381;SDS011;60099;45.660;13.804;2022-09-13T18:22:00;3.20;;;1.83;;
71381;SDS011;60099;45.660;13.804;2022-09-13T18:24:26;2.33;;;1.90;;
71381;SDS011;60099;45.660;13.804;2022-09-13T18:26:52;3.38;;;2.00;;
71381;SDS011;60099;45.660;13.804;2022-09-13T18:29:17;3.22;;;1.70;;